createdAt,value
2016-10-22T00:04:56.017Z,18.91
2016-10-22T00:09:55.966Z,18.86
2016-10-22T00:14:55.913Z,18.84
2016-10-22T00:19:55.565Z,18.86
2016-10-22T00:24:55.810Z,18.82
2016-10-22T00:29:55.761Z,18.81
2016-10-22T00:34:55.721Z,18.81
2016-10-22T00:39:55.655Z,18.89
2016-10-22T00:44:55.299Z,18.76
2016-10-22T00:49:55.243Z,18.81
2016-10-22T00:54:55.502Z,18.78
2016-10-22T00:59:55.441Z,18.75
2016-10-22T01:04:55.393Z,18.75
2016-10-22T01:09:55.334Z,18.74
2016-10-22T01:14:55.282Z,18.72
2016-10-22T01:19:55.232Z,18.68
2016-10-22T01:24:55.178Z,18.68
2016-10-22T01:29:55.121Z,18.63
2016-10-22T01:34:55.070Z,18.56
2016-10-22T01:39:54.704Z,18.65
2016-10-22T01:44:54.965Z,18.66
2016-10-22T01:49:54.906Z,18.6
2016-10-22T01:54:54.855Z,18.56
2016-10-22T01:59:54.495Z,18.51
2016-10-22T02:04:54.755Z,18.53
2016-10-22T02:09:54.687Z,18.59
2016-10-22T02:14:54.631Z,18.59
2016-10-22T02:19:54.579Z,18.5
2016-10-22T02:24:54.527Z,18.53
2016-10-22T02:29:54.464Z,18.53
2016-10-22T02:34:54.120Z,18.47
2016-10-22T02:39:54.391Z,18.5
2016-10-22T02:44:53.990Z,18.5
2016-10-22T02:49:54.256Z,18.49
2016-10-22T02:54:54.197Z,18.45
2016-10-22T02:59:53.835Z,18.44
2016-10-22T03:04:54.079Z,18.45
2016-10-22T03:09:54.027Z,18.45
2016-10-22T03:14:53.973Z,18.47
2016-10-22T03:19:53.923Z,18.44
2016-10-22T03:24:53.905Z,18.42
2016-10-22T03:29:53.811Z,18.42
2016-10-22T03:34:53.448Z,18.41
2016-10-22T03:39:53.700Z,18.44
2016-10-22T03:44:53.648Z,18.42
2016-10-22T03:49:53.600Z,18.41
2016-10-22T03:54:53.234Z,18.41
2016-10-22T03:59:53.185Z,18.38
2016-10-22T04:04:53.424Z,18.39
2016-10-22T04:09:53.378Z,18.39
2016-10-22T04:14:53.320Z,18.35
2016-10-22T04:19:53.261Z,18.34
2016-10-22T04:24:53.205Z,18.32
2016-10-22T04:29:53.154Z,18.29
2016-10-22T04:34:53.096Z,18.31
2016-10-22T04:39:53.038Z,18.31
2016-10-22T04:44:52.986Z,18.32
2016-10-22T04:49:52.931Z,18.27
2016-10-22T04:54:52.884Z,18.23
2016-10-22T04:59:52.825Z,18.31
2016-10-22T05:04:52.762Z,18.27
2016-10-22T05:09:52.708Z,18.2
2016-10-22T05:14:52.665Z,18.26
2016-10-22T05:19:52.297Z,18.24
2016-10-22T05:24:52.551Z,18.26
2016-10-22T05:29:52.185Z,18.2
2016-10-22T05:34:52.127Z,18.17
2016-10-22T05:39:52.372Z,18.13
2016-10-22T05:44:52.314Z,18.21
2016-10-22T05:49:52.292Z,18.08
2016-10-22T05:54:52.204Z,18.1
2016-10-22T05:59:52.148Z,18.08
2016-10-22T06:04:51.786Z,18.1
2016-10-22T06:09:51.728Z,18.06
2016-10-22T06:14:51.970Z,18.02
2016-10-22T06:19:51.308Z,18.11
2016-10-22T06:24:51.860Z,18.06
2016-10-22T06:29:51.500Z,17.99
2016-10-22T06:34:51.750Z,18.16
2016-10-22T06:39:51.684Z,18.24
2016-10-22T06:44:51.628Z,18.21
2016-10-22T06:49:51.580Z,18.29
2016-10-22T06:54:51.210Z,18.44
2016-10-22T06:59:51.157Z,18.5
2016-10-22T07:04:51.101Z,18.59
2016-10-22T07:09:51.348Z,18.57
2016-10-22T07:14:51.296Z,18.65
2016-10-22T07:19:50.955Z,18.65
2016-10-22T07:24:51.188Z,18.59
2016-10-22T07:34:51.075Z,18.81
2016-10-22T07:39:51.058Z,18.9
2016-10-22T07:44:50.960Z,18.87
2016-10-22T07:49:50.908Z,18.91
2016-10-22T07:54:50.861Z,18.96
2016-10-22T07:59:50.502Z,18.94
2016-10-22T08:04:50.751Z,18.87
2016-10-22T08:09:50.711Z,18.82
2016-10-22T08:14:50.359Z,18.78
2016-10-22T08:19:50.591Z,18.74
2016-10-22T08:24:50.235Z,18.66
2016-10-22T08:29:50.490Z,18.68
2016-10-22T08:34:50.463Z,18.59
2016-10-22T08:39:50.379Z,18.63
2016-10-22T08:44:50.325Z,18.53
2016-10-22T08:49:49.968Z,18.6
2016-10-22T08:54:49.911Z,18.6
2016-10-22T08:59:49.863Z,18.68
2016-10-22T09:04:50.113Z,18.57
2016-10-22T09:09:49.797Z,18.6
2016-10-22T09:14:49.700Z,18.56
2016-10-22T09:19:49.959Z,18.65
2016-10-22T09:24:49.595Z,18.76
2016-10-22T09:29:49.852Z,18.75
2016-10-22T09:34:49.803Z,18.84
2016-10-22T09:39:49.751Z,18.81
2016-10-22T09:44:49.391Z,18.79
2016-10-22T09:49:49.649Z,18.78
2016-10-22T09:54:49.576Z,18.74
2016-10-22T09:59:49.535Z,18.81
2016-10-22T10:04:49.486Z,18.86
2016-10-22T10:09:49.421Z,18.79
2016-10-22T10:14:49.062Z,18.78
2016-10-22T10:19:49.316Z,18.72
2016-10-22T10:24:48.650Z,18.68
2016-10-22T10:29:49.196Z,18.76
2016-10-22T10:34:49.182Z,18.65
2016-10-22T10:39:49.092Z,18.68
2016-10-22T10:44:48.732Z,18.65
2016-10-22T10:49:49.026Z,18.71
2016-10-22T10:54:48.936Z,18.69
2016-10-22T10:59:48.577Z,18.78
2016-10-22T11:04:48.831Z,18.75
2016-10-22T11:09:48.771Z,18.78
2016-10-22T11:14:48.412Z,18.79
2016-10-22T11:19:48.403Z,18.86
2016-10-22T11:24:48.312Z,18.79
2016-10-22T11:29:48.256Z,18.86
2016-10-22T11:34:48.204Z,18.89
2016-10-22T11:39:48.468Z,19.07
2016-10-22T11:44:48.114Z,19.16
2016-10-22T11:49:48.356Z,19.16
2016-10-22T11:54:48.307Z,19.17
2016-10-22T11:59:47.951Z,19.19
2016-10-22T12:04:48.206Z,19.19
2016-10-22T12:09:47.848Z,19.07
2016-10-22T12:14:48.106Z,19.02
2016-10-22T12:19:47.746Z,18.99
2016-10-22T12:24:48.001Z,18.99
2016-10-22T12:29:47.644Z,19
2016-10-22T12:34:47.901Z,19.02
2016-10-22T12:39:47.549Z,19.02
2016-10-22T12:44:47.492Z,19.05
2016-10-22T12:49:47.736Z,19.15
2016-10-22T12:54:47.692Z,19.25
2016-10-22T12:59:47.330Z,19.42
2016-10-22T13:04:47.591Z,19.53
2016-10-22T13:09:47.227Z,19.42
2016-10-22T13:14:47.173Z,19.47
2016-10-22T13:19:47.423Z,19.32
2016-10-22T13:24:47.400Z,19.75
2016-10-22T13:29:47.323Z,19.65
2016-10-22T13:34:46.969Z,19.52
2016-10-22T13:39:46.921Z,19.47
2016-10-22T13:44:46.866Z,19.47
2016-10-22T13:49:47.120Z,19.47
2016-10-22T13:54:46.750Z,18.97
2016-10-22T13:59:46.694Z,19.1
2016-10-22T14:04:46.946Z,19.25
2016-10-22T14:09:46.916Z,19.2
2016-10-22T14:14:46.552Z,19.15
2016-10-22T14:19:46.790Z,19.23
2016-10-22T14:24:46.431Z,19.23
2016-10-22T14:29:46.480Z,19.23
2016-10-22T14:34:46.634Z,19.16
2016-10-22T14:39:46.587Z,19.07
2016-10-22T14:44:46.526Z,19.02
2016-10-22T14:49:46.184Z,18.99
2016-10-22T14:54:46.434Z,18.99
2016-10-22T14:59:45.764Z,18.93
2016-10-22T15:04:46.324Z,18.96
2016-10-22T15:09:46.278Z,18.87
2016-10-22T15:14:46.218Z,18.87
2016-10-22T15:19:46.174Z,18.87
2016-10-22T15:24:45.811Z,18.89
2016-10-22T15:29:46.068Z,19.02
2016-10-22T15:34:46.015Z,19
2016-10-22T15:39:45.965Z,19.07
2016-10-22T15:44:45.915Z,19.06
2016-10-22T15:49:45.875Z,19.07
2016-10-22T15:54:45.829Z,19.16
2016-10-22T15:59:45.764Z,19.2
2016-10-22T16:04:45.703Z,19.31
2016-10-22T16:09:45.650Z,19.42
2016-10-22T16:14:45.300Z,19.46
2016-10-22T16:19:45.244Z,19.4
2016-10-22T16:24:45.508Z,19.25
2016-10-22T16:29:44.834Z,19.23
2016-10-22T16:34:45.386Z,19.17
2016-10-22T16:39:45.040Z,19.09
2016-10-22T16:44:45.286Z,18.94
2016-10-22T16:49:45.251Z,18.91
2016-10-22T16:54:45.189Z,18.87
2016-10-22T16:59:45.147Z,18.96
2016-10-22T17:04:45.079Z,19.06
2016-10-22T17:09:45.031Z,19
2016-10-22T17:14:44.673Z,19.1
2016-10-22T17:19:44.618Z,19.09
2016-10-22T17:24:44.879Z,19.07
2016-10-22T17:29:44.528Z,18.97
2016-10-22T17:34:44.775Z,19
2016-10-22T17:39:44.723Z,19.02
2016-10-22T17:44:44.358Z,18.99
2016-10-22T17:49:44.304Z,18.99
2016-10-22T17:54:44.559Z,19.05
2016-10-22T17:59:44.506Z,19.02
2016-10-22T18:04:44.448Z,19.07
2016-10-22T18:09:44.430Z,19.12
2016-10-22T18:14:44.030Z,19.2
2016-10-22T18:19:44.292Z,19.3
2016-10-22T18:24:43.925Z,19.47
2016-10-22T18:29:44.193Z,19.6
2016-10-22T18:34:44.134Z,19.63
2016-10-22T18:39:43.782Z,19.72
2016-10-22T18:44:44.038Z,19.74
2016-10-22T18:49:43.684Z,19.82
2016-10-22T18:54:43.978Z,19.8
2016-10-22T18:59:43.892Z,19.75
2016-10-22T19:04:43.854Z,19.78
2016-10-22T19:09:43.792Z,19.74
2016-10-22T19:14:43.752Z,19.78
2016-10-22T19:19:43.701Z,19.68
2016-10-22T19:24:43.647Z,19.79
2016-10-22T19:29:43.612Z,19.82
2016-10-22T19:34:43.555Z,19.7
2016-10-22T19:39:43.507Z,19.78
2016-10-22T19:44:43.455Z,19.75
2016-10-22T19:49:43.400Z,19.78
2016-10-22T19:54:43.362Z,19.75
2016-10-22T19:59:43.306Z,19.75
2016-10-22T20:04:43.258Z,19.82
2016-10-22T20:09:43.208Z,19.79
2016-10-22T20:14:43.161Z,19.85
2016-10-22T20:19:43.114Z,19.82
2016-10-22T20:24:43.066Z,19.86
2016-10-22T20:29:43.020Z,19.86
2016-10-22T20:34:42.973Z,19.87
2016-10-22T20:39:42.929Z,19.82
2016-10-22T20:44:42.580Z,19.82
2016-10-22T20:49:42.829Z,19.85
2016-10-22T20:54:42.789Z,19.86
2016-10-22T20:59:42.436Z,19.82
2016-10-22T21:04:42.695Z,19.78
2016-10-22T21:09:42.643Z,19.75
2016-10-22T21:14:42.588Z,19.87
2016-10-22T21:19:42.242Z,19.93
2016-10-22T21:24:42.501Z,20.07
2016-10-22T21:29:42.452Z,20.19
2016-10-22T21:34:42.407Z,20.08
2016-10-22T21:39:42.057Z,20.18
2016-10-22T21:44:42.313Z,20.08
2016-10-22T21:49:42.261Z,20.05
2016-10-22T21:54:42.211Z,20.11
2016-10-22T21:59:42.159Z,19.97
2016-10-22T22:04:42.117Z,19.98
2016-10-22T22:09:42.067Z,19.97
2016-10-22T22:14:42.021Z,19.83
2016-10-22T22:19:41.661Z,19.78
2016-10-22T22:24:41.913Z,19.65
2016-10-22T22:29:41.863Z,19.57
2016-10-22T22:34:41.509Z,19.43
2016-10-22T22:39:41.464Z,19.43
2016-10-22T22:44:41.714Z,19.46
2016-10-22T22:49:41.364Z,19.37
2016-10-22T22:54:41.648Z,19.27
2016-10-22T22:59:41.560Z,19.28
2016-10-22T23:04:41.513Z,19.23
2016-10-22T23:09:41.461Z,19.06
2016-10-22T23:14:41.445Z,19.07
2016-10-22T23:19:41.352Z,19.02
2016-10-22T23:24:40.991Z,18.91
2016-10-22T23:29:40.632Z,18.87
2016-10-22T23:34:41.202Z,18.87
2016-10-22T23:39:40.834Z,18.78
2016-10-22T23:44:40.784Z,18.87
2016-10-22T23:49:40.730Z,18.75
2016-10-22T23:54:40.992Z,18.71
2016-10-22T23:59:40.935Z,18.69
